sensor_id;sensor_type;location;lat;lon;timestamp;pressure;altitude;pressure_sealevel;temperature;humidity
32747;BME280;19118;50.860;13.662;2022-08-19T00:01:31;96229.47;;;20.83;98.35
32747;BME280;19118;50.860;13.662;2022-08-19T00:06:33;96227.34;;;20.80;97.85
32747;BME280;19118;50.860;13.662;2022-08-19T00:11:34;96239.16;;;20.84;98.18
32747;BME280;19118;50.860;13.662;2022-08-19T00:16:38;96252.59;;;20.84;97.72
32747;BME280;19118;50.860;13.662;2022-08-19T00:21:39;96258.00;;;20.79;98.62
32747;BME280;19118;50.860;13.662;2022-08-19T00:26:41;96246.03;;;20.95;97.61
32747;BME280;19118;50.860;13.662;2022-08-19T00:31:41;96237.22;;;20.89;97.38
32747;BME280;19118;50.860;13.662;2022-08-19T00:36:43;96242.72;;;21.03;97.20
32747;BME280;19118;50.860;13.662;2022-08-19T00:41:44;96241.84;;;20.84;97.79
32747;BME280;19118;50.860;13.662;2022-08-19T00:46:49;96252.41;;;21.04;96.62
32747;BME280;19118;50.860;13.662;2022-08-19T00:51:53;96243.66;;;21.17;95.96
32747;BME280;19118;50.860;13.662;2022-08-19T00:56:55;96251.16;;;20.91;97.71
32747;BME280;19118;50.860;13.662;2022-08-19T01:01:55;96236.25;;;20.75;98.96
32747;BME280;19118;50.860;13.662;2022-08-19T01:06:57;96249.16;;;21.07;97.18
32747;BME280;19118;50.860;13.662;2022-08-19T01:11:57;96271.41;;;20.84;97.98
32747;BME280;19118;50.860;13.662;2022-08-19T01:16:58;96278.38;;;20.85;98.87
32747;BME280;19118;50.860;13.662;2022-08-19T01:22:19;96265.31;;;21.02;98.14
32747;BME280;19118;50.860;13.662;2022-08-19T01:27:22;96264.03;;;20.94;98.37
32747;BME280;19118;50.860;13.662;2022-08-19T01:32:22;96264.97;;;20.80;99.57
32747;BME280;19118;50.860;13.662;2022-08-19T01:37:22;96259.63;;;20.75;100.00
32747;BME280;19118;50.860;13.662;2022-08-19T01:42:24;96266.63;;;20.71;100.00
32747;BME280;19118;50.860;13.662;2022-08-19T01:47:25;96267.50;;;20.66;100.00
32747;BME280;19118;50.860;13.662;2022-08-19T01:52:25;96267.38;;;20.81;100.00
32747;BME280;19118;50.860;13.662;2022-08-19T01:57:26;96241.69;;;20.99;99.14
32747;BME280;19118;50.860;13.662;2022-08-19T02:02:26;96232.84;;;20.99;99.14
32747;BME280;19118;50.860;13.662;2022-08-19T02:07:27;96241.13;;;21.02;99.92
32747;BME280;19118;50.860;13.662;2022-08-19T02:12:28;96249.56;;;20.56;100.00
32747;BME280;19118;50.860;13.662;2022-08-19T02:17:29;96255.22;;;20.89;100.00
32747;BME280;19118;50.860;13.662;2022-08-19T02:22:29;96250.84;;;20.98;100.00
32747;BME280;19118;50.860;13.662;2022-08-19T02:33:50;96257.78;;;21.04;100.00
32747;BME280;19118;50.860;13.662;2022-08-19T02:38:52;96250.34;;;20.96;100.00
32747;BME280;19118;50.860;13.662;2022-08-19T02:43:54;96252.03;;;21.16;99.86
32747;BME280;19118;50.860;13.662;2022-08-19T02:48:57;96250.84;;;20.98;100.00
32747;BME280;19118;50.860;13.662;2022-08-19T02:53:59;96259.66;;;20.70;100.00
32747;BME280;19118;50.860;13.662;2022-08-19T02:59:00;96262.34;;;20.70;100.00
32747;BME280;19118;50.860;13.662;2022-08-19T03:04:04;96261.72;;;20.44;100.00
32747;BME280;19118;50.860;13.662;2022-08-19T03:09:04;96253.88;;;20.52;100.00
32747;BME280;19118;50.860;13.662;2022-08-19T03:14:06;96257.22;;;20.29;100.00
32747;BME280;19118;50.860;13.662;2022-08-19T03:19:07;96270.97;;;20.67;100.00
32747;BME280;19118;50.860;13.662;2022-08-19T03:24:08;96271.81;;;20.62;100.00
32747;BME280;19118;50.860;13.662;2022-08-19T03:29:09;96265.72;;;20.46;100.00
32747;BME280;19118;50.860;13.662;2022-08-19T03:34:16;96281.78;;;20.56;100.00
32747;BME280;19118;50.860;13.662;2022-08-19T03:39:18;96282.03;;;20.60;100.00
32747;BME280;19118;50.860;13.662;2022-08-19T03:44:20;96273.06;;;20.75;100.00
32747;BME280;19118;50.860;13.662;2022-08-19T03:49:24;96271.28;;;20.94;100.00
32747;BME280;19118;50.860;13.662;2022-08-19T03:54:25;96268.16;;;20.82;100.00
32747;BME280;19118;50.860;13.662;2022-08-19T03:59:31;96264.81;;;20.66;100.00
32747;BME280;19118;50.860;13.662;2022-08-19T04:04:31;96261.47;;;20.40;100.00
32747;BME280;19118;50.860;13.662;2022-08-19T04:09:33;96260.78;;;20.63;100.00
32747;BME280;19118;50.860;13.662;2022-08-19T04:14:34;96250.78;;;20.74;100.00
32747;BME280;19118;50.860;13.662;2022-08-19T04:19:35;96249.91;;;20.84;100.00
32747;BME280;19118;50.860;13.662;2022-08-19T04:24:35;96272.94;;;20.90;100.00
32747;BME280;19118;50.860;13.662;2022-08-19T04:29:36;96265.50;;;20.43;100.00
32747;BME280;19118;50.860;13.662;2022-08-19T04:34:39;96260.28;;;20.56;100.00
32747;BME280;19118;50.860;13.662;2022-08-19T04:39:39;96270.00;;;20.52;100.00
32747;BME280;19118;50.860;13.662;2022-08-19T04:44:58;96268.41;;;20.46;100.00
32747;BME280;19118;50.860;13.662;2022-08-19T04:49:59;96274.31;;;20.48;100.00
32747;BME280;19118;50.860;13.662;2022-08-19T04:55:00;96268.34;;;20.61;100.00
32747;BME280;19118;50.860;13.662;2022-08-19T05:00:00;96266.31;;;20.33;100.00
32747;BME280;19118;50.860;13.662;2022-08-19T05:05:01;96265.47;;;20.38;100.00
32747;BME280;19118;50.860;13.662;2022-08-19T05:10:05;96287.25;;;20.36;100.00
32747;BME280;19118;50.860;13.662;2022-08-19T05:15:06;96298.63;;;20.13;100.00
32747;BME280;19118;50.860;13.662;2022-08-19T05:20:09;96317.44;;;20.18;100.00
32747;BME280;19118;50.860;13.662;2022-08-19T05:25:28;96323.28;;;20.25;100.00
32747;BME280;19118;50.860;13.662;2022-08-19T05:30:28;96326.66;;;19.86;100.00
32747;BME280;19118;50.860;13.662;2022-08-19T05:35:29;96335.97;;;20.04;100.00
32747;BME280;19118;50.860;13.662;2022-08-19T05:40:30;96340.22;;;20.15;100.00
32747;BME280;19118;50.860;13.662;2022-08-19T05:45:31;96351.28;;;20.03;100.00
32747;BME280;19118;50.860;13.662;2022-08-19T05:50:31;96362.50;;;20.21;100.00
32747;BME280;19118;50.860;13.662;2022-08-19T05:55:32;96372.97;;;20.22;100.00
32747;BME280;19118;50.860;13.662;2022-08-19T06:00:34;96393.13;;;20.15;100.00
32747;BME280;19118;50.860;13.662;2022-08-19T06:05:35;96397.38;;;20.31;100.00
32747;BME280;19118;50.860;13.662;2022-08-19T06:10:35;96410.31;;;20.19;100.00
32747;BME280;19118;50.860;13.662;2022-08-19T06:15:36;96422.91;;;20.23;100.00
32747;BME280;19118;50.860;13.662;2022-08-19T06:20:37;96426.69;;;20.22;100.00
32747;BME280;19118;50.860;13.662;2022-08-19T06:25:38;96442.84;;;19.82;100.00
32747;BME280;19118;50.860;13.662;2022-08-19T06:30:40;96444.69;;;20.17;100.00
32747;BME280;19118;50.860;13.662;2022-08-19T06:35:41;96446.00;;;20.24;100.00
32747;BME280;19118;50.860;13.662;2022-08-19T06:40:41;96462.44;;;20.08;100.00
32747;BME280;19118;50.860;13.662;2022-08-19T06:45:41;96468.25;;;20.35;100.00
32747;BME280;19118;50.860;13.662;2022-08-19T06:50:42;96475.25;;;20.46;100.00
32747;BME280;19118;50.860;13.662;2022-08-19T06:55:42;96462.94;;;20.10;100.00
32747;BME280;19118;50.860;13.662;2022-08-19T07:00:43;96464.59;;;20.05;100.00
32747;BME280;19118;50.860;13.662;2022-08-19T07:05:43;96452.16;;;20.25;100.00
32747;BME280;19118;50.860;13.662;2022-08-19T07:10:44;96466.38;;;20.41;100.00
32747;BME280;19118;50.860;13.662;2022-08-19T07:15:45;96476.84;;;20.37;100.00
32747;BME280;19118;50.860;13.662;2022-08-19T07:20:47;96474.19;;;20.42;100.00
32747;BME280;19118;50.860;13.662;2022-08-19T07:25:48;96483.03;;;20.38;100.00
32747;BME280;19118;50.860;13.662;2022-08-19T07:30:48;96467.91;;;20.72;100.00
32747;BME280;19118;50.860;13.662;2022-08-19T07:35:49;96470.81;;;20.86;100.00
32747;BME280;19118;50.860;13.662;2022-08-19T07:40:50;96475.88;;;20.98;100.00
32747;BME280;19118;50.860;13.662;2022-08-19T07:45:53;96481.72;;;21.10;100.00
32747;BME280;19118;50.860;13.662;2022-08-19T07:50:58;96485.66;;;21.28;100.00
32747;BME280;19118;50.860;13.662;2022-08-19T07:56:03;96483.25;;;21.26;100.00
32747;BME280;19118;50.860;13.662;2022-08-19T08:01:06;96502.09;;;21.16;100.00
32747;BME280;19118;50.860;13.662;2022-08-19T08:06:07;96494.81;;;21.27;100.00
32747;BME280;19118;50.860;13.662;2022-08-19T08:11:26;96492.47;;;21.59;100.00
32747;BME280;19118;50.860;13.662;2022-08-19T08:16:27;96510.41;;;21.25;100.00
32747;BME280;19118;50.860;13.662;2022-08-19T08:21:32;96506.66;;;21.31;100.00
32747;BME280;19118;50.860;13.662;2022-08-19T08:26:33;96501.00;;;21.22;100.00
32747;BME280;19118;50.860;13.662;2022-08-19T08:31:33;96514.47;;;21.22;100.00
32747;BME280;19118;50.860;13.662;2022-08-19T08:36:43;96514.13;;;21.39;100.00
32747;BME280;19118;50.860;13.662;2022-08-19T08:41:58;96502.34;;;21.25;100.00
32747;BME280;19118;50.860;13.662;2022-08-19T08:47:10;96513.88;;;21.35;100.00
32747;BME280;19118;50.860;13.662;2022-08-19T08:52:18;96508.38;;;21.56;100.00
32747;BME280;19118;50.860;13.662;2022-08-19T08:57:28;96523.69;;;21.01;100.00
32747;BME280;19118;50.860;13.662;2022-08-19T09:02:31;96521.19;;;21.30;100.00
32747;BME280;19118;50.860;13.662;2022-08-19T09:07:39;96528.72;;;21.22;100.00
32747;BME280;19118;50.860;13.662;2022-08-19T09:13:00;96521.47;;;22.35;97.08
32747;BME280;19118;50.860;13.662;2022-08-19T09:18:04;96513.13;;;23.09;94.38
32747;BME280;19118;50.860;13.662;2022-08-19T09:23:04;96505.47;;;22.97;91.94
32747;BME280;19118;50.860;13.662;2022-08-19T09:28:05;96507.03;;;22.26;94.99
32747;BME280;19118;50.860;13.662;2022-08-19T09:33:06;96505.41;;;22.25;96.51
32747;BME280;19118;50.860;13.662;2022-08-19T09:38:07;96505.66;;;22.53;96.41
32747;BME280;19118;50.860;13.662;2022-08-19T09:43:07;96506.88;;;21.78;99.08
32747;BME280;19118;50.860;13.662;2022-08-19T09:48:08;96528.19;;;22.09;99.26
32747;BME280;19118;50.860;13.662;2022-08-19T09:53:09;96520.81;;;22.20;100.00
32747;BME280;19118;50.860;13.662;2022-08-19T09:58:09;96510.56;;;22.99;96.88
32747;BME280;19118;50.860;13.662;2022-08-19T10:03:10;96501.19;;;23.15;93.86
32747;BME280;19118;50.860;13.662;2022-08-19T10:08:11;96521.88;;;22.77;93.69
32747;BME280;19118;50.860;13.662;2022-08-19T10:13:14;96528.47;;;24.07;87.47
32747;BME280;19118;50.860;13.662;2022-08-19T10:18:15;96531.63;;;23.96;89.29
32747;BME280;19118;50.860;13.662;2022-08-19T10:23:19;96540.91;;;24.41;85.02
32747;BME280;19118;50.860;13.662;2022-08-19T10:28:20;96541.28;;;23.64;90.42
32747;BME280;19118;50.860;13.662;2022-08-19T10:33:20;96534.47;;;22.81;92.64
32747;BME280;19118;50.860;13.662;2022-08-19T10:38:21;96547.91;;;23.34;91.38
32747;BME280;19118;50.860;13.662;2022-08-19T10:43:21;96546.09;;;24.05;86.39
32747;BME280;19118;50.860;13.662;2022-08-19T10:48:22;96556.09;;;24.83;82.81
32747;BME280;19118;50.860;13.662;2022-08-19T10:53:22;96552.25;;;23.73;87.52
32747;BME280;19118;50.860;13.662;2022-08-19T10:58:25;96567.03;;;22.61;93.15
32747;BME280;19118;50.860;13.662;2022-08-19T11:03:26;96585.56;;;22.38;96.79
32747;BME280;19118;50.860;13.662;2022-08-19T11:08:29;96580.69;;;21.67;100.00
32747;BME280;19118;50.860;13.662;2022-08-19T11:13:33;96579.69;;;23.37;94.74
32747;BME280;19118;50.860;13.662;2022-08-19T11:18:39;96570.69;;;24.03;90.29
32747;BME280;19118;50.860;13.662;2022-08-19T11:23:40;96571.41;;;24.88;86.86
32747;BME280;19118;50.860;13.662;2022-08-19T11:28:41;96581.03;;;24.34;86.04
32747;BME280;19118;50.860;13.662;2022-08-19T11:33:41;96570.94;;;25.13;82.40
32747;BME280;19118;50.860;13.662;2022-08-19T11:38:42;96571.72;;;24.86;82.49
32747;BME280;19118;50.860;13.662;2022-08-19T11:43:43;96579.66;;;25.51;78.71
32747;BME280;19118;50.860;13.662;2022-08-19T11:48:44;96577.81;;;24.78;81.15
32747;BME280;19118;50.860;13.662;2022-08-19T11:53:45;96574.34;;;25.33;81.17
32747;BME280;19118;50.860;13.662;2022-08-19T11:58:46;96584.00;;;25.39;77.99
32747;BME280;19118;50.860;13.662;2022-08-19T12:03:48;96571.34;;;25.20;78.35
32747;BME280;19118;50.860;13.662;2022-08-19T12:08:49;96575.38;;;25.09;78.93
32747;BME280;19118;50.860;13.662;2022-08-19T12:13:49;96581.84;;;23.78;84.58
32747;BME280;19118;50.860;13.662;2022-08-19T12:18:50;96589.47;;;23.33;85.61
32747;BME280;19118;50.860;13.662;2022-08-19T12:23:51;96595.94;;;23.08;88.30
32747;BME280;19118;50.860;13.662;2022-08-19T12:28:52;96590.34;;;23.71;85.73
32747;BME280;19118;50.860;13.662;2022-08-19T12:33:52;96600.50;;;23.37;87.46
32747;BME280;19118;50.860;13.662;2022-08-19T12:38:52;96596.09;;;23.65;86.03
32747;BME280;19118;50.860;13.662;2022-08-19T12:43:53;96596.47;;;23.77;85.18
32747;BME280;19118;50.860;13.662;2022-08-19T12:48:53;96598.34;;;23.10;87.56
32747;BME280;19118;50.860;13.662;2022-08-19T12:53:54;96603.41;;;23.40;88.37
32747;BME280;19118;50.860;13.662;2022-08-19T12:58:54;96605.50;;;22.72;92.67
32747;BME280;19118;50.860;13.662;2022-08-19T13:03:55;96601.94;;;22.13;98.00
32747;BME280;19118;50.860;13.662;2022-08-19T13:08:56;96587.28;;;22.87;92.47
32747;BME280;19118;50.860;13.662;2022-08-19T13:13:56;96592.72;;;22.53;93.52
32747;BME280;19118;50.860;13.662;2022-08-19T13:18:57;96590.81;;;23.12;90.37
32747;BME280;19118;50.860;13.662;2022-08-19T13:23:58;96597.28;;;23.11;91.84
32747;BME280;19118;50.860;13.662;2022-08-19T13:28:58;96587.47;;;23.63;87.30
32747;BME280;19118;50.860;13.662;2022-08-19T13:34:24;96585.94;;;22.90;91.39
32747;BME280;19118;50.860;13.662;2022-08-19T13:39:25;96587.84;;;23.32;88.47
32747;BME280;19118;50.860;13.662;2022-08-19T13:44:26;96589.44;;;22.90;90.78
32747;BME280;19118;50.860;13.662;2022-08-19T13:49:29;96594.28;;;21.37;99.27
32747;BME280;19118;50.860;13.662;2022-08-19T13:54:31;96596.41;;;21.45;100.00
32747;BME280;19118;50.860;13.662;2022-08-19T13:59:31;96607.00;;;21.80;100.00
32747;BME280;19118;50.860;13.662;2022-08-19T14:04:32;96601.91;;;22.18;97.43
32747;BME280;19118;50.860;13.662;2022-08-19T14:09:32;96596.06;;;22.06;96.70
32747;BME280;19118;50.860;13.662;2022-08-19T14:14:36;96602.09;;;22.32;96.28
32747;BME280;19118;50.860;13.662;2022-08-19T14:19:37;96605.25;;;22.68;94.35
32747;BME280;19118;50.860;13.662;2022-08-19T14:24:38;96599.56;;;22.99;91.90
32747;BME280;19118;50.860;13.662;2022-08-19T14:29:39;96597.50;;;22.32;94.59
32747;BME280;19118;50.860;13.662;2022-08-19T14:34:40;96600.22;;;22.27;96.96
32747;BME280;19118;50.860;13.662;2022-08-19T14:39:41;96619.84;;;22.33;95.00
32747;BME280;19118;50.860;13.662;2022-08-19T14:44:42;96622.91;;;22.55;94.09
32747;BME280;19118;50.860;13.662;2022-08-19T14:49:42;96617.63;;;22.01;97.18
32747;BME280;19118;50.860;13.662;2022-08-19T14:54:44;96594.88;;;22.51;92.82
32747;BME280;19118;50.860;13.662;2022-08-19T14:59:44;96619.81;;;21.94;95.84
32747;BME280;19118;50.860;13.662;2022-08-19T15:04:44;96612.88;;;21.83;96.32
32747;BME280;19118;50.860;13.662;2022-08-19T15:09:48;96617.88;;;22.44;93.59
32747;BME280;19118;50.860;13.662;2022-08-19T15:14:49;96622.63;;;22.57;92.91
32747;BME280;19118;50.860;13.662;2022-08-19T15:19:51;96629.31;;;21.81;96.72
32747;BME280;19118;50.860;13.662;2022-08-19T15:24:51;96620.34;;;21.96;94.93
32747;BME280;19118;50.860;13.662;2022-08-19T15:29:54;96613.13;;;21.37;98.04
32747;BME280;19118;50.860;13.662;2022-08-19T15:34:54;96597.69;;;22.02;95.99
32747;BME280;19118;50.860;13.662;2022-08-19T15:39:55;96593.88;;;22.42;94.60
32747;BME280;19118;50.860;13.662;2022-08-19T15:44:56;96576.38;;;23.45;87.55
32747;BME280;19118;50.860;13.662;2022-08-19T15:49:56;96574.59;;;23.54;86.30
32747;BME280;19118;50.860;13.662;2022-08-19T15:54:56;96573.91;;;22.77;89.46
32747;BME280;19118;50.860;13.662;2022-08-19T15:59:57;96587.84;;;22.26;91.75
32747;BME280;19118;50.860;13.662;2022-08-19T16:05:19;96592.28;;;22.70;89.90
32747;BME280;19118;50.860;13.662;2022-08-19T16:10:38;96599.16;;;22.57;89.91
32747;BME280;19118;50.860;13.662;2022-08-19T16:15:39;96598.75;;;22.06;92.23
32747;BME280;19118;50.860;13.662;2022-08-19T16:20:41;96595.47;;;21.75;93.74
32747;BME280;19118;50.860;13.662;2022-08-19T16:25:43;96575.31;;;21.62;95.62
32747;BME280;19118;50.860;13.662;2022-08-19T16:30:43;96562.31;;;22.48;90.03
32747;BME280;19118;50.860;13.662;2022-08-19T16:35:44;96558.56;;;23.02;85.83
32747;BME280;19118;50.860;13.662;2022-08-19T16:40:44;96559.34;;;23.02;86.13
32747;BME280;19118;50.860;13.662;2022-08-19T16:45:47;96562.94;;;22.40;89.49
32747;BME280;19118;50.860;13.662;2022-08-19T16:50:49;96562.13;;;22.05;90.97
32747;BME280;19118;50.860;13.662;2022-08-19T16:55:49;96549.34;;;21.87;91.02
32747;BME280;19118;50.860;13.662;2022-08-19T17:00:53;96573.66;;;21.71;93.43
32747;BME280;19118;50.860;13.662;2022-08-19T17:05:57;96591.19;;;21.69;93.07
32747;BME280;19118;50.860;13.662;2022-08-19T17:11:01;96593.72;;;21.40;95.30
32747;BME280;19118;50.860;13.662;2022-08-19T17:16:03;96578.41;;;21.40;94.57
32747;BME280;19118;50.860;13.662;2022-08-19T17:21:03;96592.59;;;21.51;94.33
32747;BME280;19118;50.860;13.662;2022-08-19T17:26:04;96590.00;;;21.36;94.43
32747;BME280;19118;50.860;13.662;2022-08-19T17:31:05;96584.78;;;20.85;97.02
32747;BME280;19118;50.860;13.662;2022-08-19T17:36:06;96583.91;;;21.05;96.50
32747;BME280;19118;50.860;13.662;2022-08-19T17:41:07;96593.34;;;20.92;96.28
32747;BME280;19118;50.860;13.662;2022-08-19T17:46:07;96609.50;;;20.97;96.94
32747;BME280;19118;50.860;13.662;2022-08-19T17:51:15;96622.69;;;20.88;96.94
32747;BME280;19118;50.860;13.662;2022-08-19T17:56:16;96619.19;;;20.83;96.61
32747;BME280;19118;50.860;13.662;2022-08-19T18:01:17;96633.09;;;21.05;95.19
32747;BME280;19118;50.860;13.662;2022-08-19T18:06:18;96647.31;;;21.16;94.19
32747;BME280;19118;50.860;13.662;2022-08-19T18:11:18;96669.16;;;20.99;95.27
32747;BME280;19118;50.860;13.662;2022-08-19T18:16:19;96681.00;;;20.98;95.61
32747;BME280;19118;50.860;13.662;2022-08-19T18:21:21;96688.78;;;20.94;95.13
32747;BME280;19118;50.860;13.662;2022-08-19T18:26:29;96697.91;;;21.09;95.46
32747;BME280;19118;50.860;13.662;2022-08-19T18:31:29;96691.19;;;21.06;96.43
32747;BME280;19118;50.860;13.662;2022-08-19T18:36:30;96689.28;;;21.17;94.90
32747;BME280;19118;50.860;13.662;2022-08-19T18:41:33;96673.69;;;21.19;94.75
32747;BME280;19118;50.860;13.662;2022-08-19T18:46:52;96683.66;;;21.03;96.06
32747;BME280;19118;50.860;13.662;2022-08-19T18:52:11;96686.38;;;20.68;97.78
32747;BME280;19118;50.860;13.662;2022-08-19T18:57:13;96682.34;;;20.80;97.32
32747;BME280;19118;50.860;13.662;2022-08-19T19:02:13;96687.16;;;21.04;96.27
32747;BME280;19118;50.860;13.662;2022-08-19T19:07:14;96687.94;;;21.19;94.24
32747;BME280;19118;50.860;13.662;2022-08-19T19:12:17;96700.34;;;21.00;95.50
32747;BME280;19118;50.860;13.662;2022-08-19T19:17:17;96675.03;;;21.06;95.83
32747;BME280;19118;50.860;13.662;2022-08-19T19:22:24;96679.63;;;21.06;95.04
32747;BME280;19118;50.860;13.662;2022-08-19T19:27:25;96679.91;;;21.09;94.52
32747;BME280;19118;50.860;13.662;2022-08-19T19:32:28;96678.28;;;21.03;95.42
32747;BME280;19118;50.860;13.662;2022-08-19T19:37:31;96686.38;;;20.88;96.22
32747;BME280;19118;50.860;13.662;2022-08-19T19:42:32;96688.53;;;20.76;97.65
32747;BME280;19118;50.860;13.662;2022-08-19T19:47:32;96663.28;;;20.77;97.13
32747;BME280;19118;50.860;13.662;2022-08-19T19:52:32;96663.84;;;20.53;98.72
32747;BME280;19118;50.860;13.662;2022-08-19T19:57:33;96663.28;;;20.46;99.72
32747;BME280;19118;50.860;13.662;2022-08-19T20:02:33;96647.66;;;20.13;100.00
32747;BME280;19118;50.860;13.662;2022-08-19T20:07:33;96678.53;;;20.25;100.00
32747;BME280;19118;50.860;13.662;2022-08-19T20:12:52;96705.16;;;20.37;100.00
32747;BME280;19118;50.860;13.662;2022-08-19T20:17:53;96693.31;;;20.38;98.22
32747;BME280;19118;50.860;13.662;2022-08-19T20:22:54;96708.34;;;20.19;100.00
32747;BME280;19118;50.860;13.662;2022-08-19T20:27:55;96710.50;;;20.17;99.88
32747;BME280;19118;50.860;13.662;2022-08-19T20:32:55;96703.00;;;20.19;99.17
32747;BME280;19118;50.860;13.662;2022-08-19T20:37:55;96695.97;;;20.13;98.92
32747;BME280;19118;50.860;13.662;2022-08-19T20:42:56;96704.81;;;19.98;99.41
32747;BME280;19118;50.860;13.662;2022-08-19T20:47:56;96697.06;;;20.22;98.96
32747;BME280;19118;50.860;13.662;2022-08-19T20:52:56;96679.91;;;20.33;97.39
32747;BME280;19118;50.860;13.662;2022-08-19T20:57:57;96684.75;;;20.41;97.14
32747;BME280;19118;50.860;13.662;2022-08-19T21:02:57;96697.63;;;20.34;97.01
32747;BME280;19118;50.860;13.662;2022-08-19T21:07:58;96703.06;;;20.54;96.76
32747;BME280;19118;50.860;13.662;2022-08-19T21:12:58;96691.19;;;20.40;96.60
32747;BME280;19118;50.860;13.662;2022-08-19T21:17:58;96692.25;;;20.24;97.52
32747;BME280;19118;50.860;13.662;2022-08-19T21:23:03;96712.69;;;20.30;97.29
32747;BME280;19118;50.860;13.662;2022-08-19T21:28:04;96707.28;;;20.20;98.29
32747;BME280;19118;50.860;13.662;2022-08-19T21:33:05;96701.94;;;20.30;97.84
32747;BME280;19118;50.860;13.662;2022-08-19T21:38:06;96704.34;;;20.31;97.15
32747;BME280;19118;50.860;13.662;2022-08-19T21:43:06;96707.25;;;20.15;97.97
32747;BME280;19118;50.860;13.662;2022-08-19T21:48:06;96707.81;;;20.27;98.10
32747;BME280;19118;50.860;13.662;2022-08-19T21:53:07;96692.78;;;20.21;97.83
32747;BME280;19118;50.860;13.662;2022-08-19T21:58:08;96683.13;;;20.30;96.90
32747;BME280;19118;50.860;13.662;2022-08-19T22:03:08;96690.16;;;20.46;96.33
32747;BME280;19118;50.860;13.662;2022-08-19T22:08:09;96687.97;;;20.33;96.51
32747;BME280;19118;50.860;13.662;2022-08-19T22:13:09;96697.09;;;20.37;96.96
32747;BME280;19118;50.860;13.662;2022-08-19T22:18:10;96700.56;;;20.22;97.50
32747;BME280;19118;50.860;13.662;2022-08-19T22:23:12;96690.69;;;20.43;96.76
32747;BME280;19118;50.860;13.662;2022-08-19T22:28:15;96685.81;;;20.40;97.11
32747;BME280;19118;50.860;13.662;2022-08-19T22:33:17;96687.16;;;20.38;97.03
32747;BME280;19118;50.860;13.662;2022-08-19T22:38:18;96691.25;;;20.50;96.47
32747;BME280;19118;50.860;13.662;2022-08-19T22:43:21;96686.41;;;20.42;97.59
32747;BME280;19118;50.860;13.662;2022-08-19T22:48:26;96702.78;;;20.51;96.28
32747;BME280;19118;50.860;13.662;2022-08-19T22:53:27;96694.97;;;20.59;96.44
32747;BME280;19118;50.860;13.662;2022-08-19T22:58:27;96688.53;;;20.55;95.83
32747;BME280;19118;50.860;13.662;2022-08-19T23:03:28;96688.78;;;20.39;97.28
32747;BME280;19118;50.860;13.662;2022-08-19T23:08:29;96697.63;;;20.34;98.21
32747;BME280;19118;50.860;13.662;2022-08-19T23:13:29;96686.88;;;20.24;99.76
32747;BME280;19118;50.860;13.662;2022-08-19T23:18:31;96692.22;;;20.09;99.95
32747;BME280;19118;50.860;13.662;2022-08-19T23:23:31;96687.88;;;19.92;100.00
32747;BME280;19118;50.860;13.662;2022-08-19T23:28:31;96671.78;;;19.92;100.00
32747;BME280;19118;50.860;13.662;2022-08-19T23:33:50;96675.00;;;19.84;100.00
32747;BME280;19118;50.860;13.662;2022-08-19T23:38:52;96681.19;;;20.00;100.00
32747;BME280;19118;50.860;13.662;2022-08-19T23:43:53;96679.81;;;19.87;100.00
32747;BME280;19118;50.860;13.662;2022-08-19T23:48:54;96681.44;;;19.88;100.00
32747;BME280;19118;50.860;13.662;2022-08-19T23:53:54;96665.34;;;19.98;100.00
32747;BME280;19118;50.860;13.662;2022-08-19T23:58:54;96666.91;;;19.79;100.00
